Bondville, Kentucky
Current Conditions -  °F | °C
As of 7:54 AM on Tuesday 21 Oct 2014 (Local Time) from KLEX Reporting Station
Broken Clouds Broken Clouds  
Wind Chill: 50°   Ceiling: 6000
Heat Index: 50°   Visibility: 9mi
Dew Point: 46°   Wind: 7mph
Humidity: 86%   Direction: 300°WNW
Pressure: 29.99"   Gusts: NA
Location:  37.9095°N, 84.8846°W
Report Text: KLEX 211154Z 30006KT 9SM BKN060 10/08 A2999 RMK AO2 SLP155 70006 T01000078 10122 20100 53016
Loading
Personal Weather Stations






























Interactive Weather Map
Tropical Storm Tracking
New forecast layout! Learn more

10-Day Weather Forecast

Advertisements
Track Severe Weather on mobile